KRID/RID METAR and TAF weather

Enter ICAO airport designator
Station Type Date Time Source
KRID METAR 2019/11/18 12:15 UTC NOAA

KRID 181215Z AUTO 00000KT 10SM CLR M01/M01 A2979 RMK AO2


Station Type Date Time Source
KRID Decoded METAR 2019/11/18 12:15 UTC NOAA

Station name not available
Nov 18, 2019 - 07:15 AM EST / 2019.11.18 1215 UTC
Wind: Calm:0
Visibility: 10 mile(s):0
Sky conditions: clear
Temperature: 30 F (-1 C)
Dew Point: 30 F (-1 C)
Relative Humidity: 100%
Pressure (altimeter): 29.79 in. Hg (1008 hPa)
ob: KRID 181215Z AUTO 00000KT 10SM CLR M01/M01 A2979 RMK AO2
cycle: 12

Station Type Date Time Source
KRID TAF UTC NOAA

Error!

Example: see airport list